sensor_id;sensor_type;location;lat;lon;timestamp;pressure;altitude;pressure_sealevel;temperature;humidity
79544;BME280;68994;47.176;7.534;2023-07-24T00:00:12;95479.72;;;20.07;60.09
79544;BME280;68994;47.176;7.534;2023-07-24T00:02:41;95487.84;;;20.07;60.51
79544;BME280;68994;47.176;7.534;2023-07-24T00:05:09;95468.75;;;20.04;62.07
79544;BME280;68994;47.176;7.534;2023-07-24T00:07:36;95460.25;;;19.93;64.16
79544;BME280;68994;47.176;7.534;2023-07-24T00:10:03;95453.34;;;19.95;61.83
79544;BME280;68994;47.176;7.534;2023-07-24T00:12:30;95452.72;;;19.69;63.27
79544;BME280;68994;47.176;7.534;2023-07-24T00:14:57;95448.88;;;19.49;64.42
79544;BME280;68994;47.176;7.534;2023-07-24T00:17:24;95443.84;;;19.38;66.09
79544;BME280;68994;47.176;7.534;2023-07-24T00:19:50;95445.06;;;19.20;67.24
79544;BME280;68994;47.176;7.534;2023-07-24T00:22:18;95457.53;;;19.03;68.16
79544;BME280;68994;47.176;7.534;2023-07-24T00:24:45;95461.56;;;18.97;67.15
79544;BME280;68994;47.176;7.534;2023-07-24T00:27:12;95465.75;;;18.86;67.90
79544;BME280;68994;47.176;7.534;2023-07-24T00:29:39;95465.59;;;18.73;68.79
79544;BME280;68994;47.176;7.534;2023-07-24T00:32:06;95450.63;;;18.76;66.53
79544;BME280;68994;47.176;7.534;2023-07-24T00:34:33;95452.69;;;18.79;68.27
79544;BME280;68994;47.176;7.534;2023-07-24T00:37:00;95447.31;;;18.70;69.15
79544;BME280;68994;47.176;7.534;2023-07-24T00:39:28;95445.09;;;18.72;66.89
79544;BME280;68994;47.176;7.534;2023-07-24T00:41:55;95428.59;;;18.65;69.31
79544;BME280;68994;47.176;7.534;2023-07-24T00:44:21;95425.25;;;18.60;70.01
79544;BME280;68994;47.176;7.534;2023-07-24T00:46:48;95420.19;;;18.49;69.05
79544;BME280;68994;47.176;7.534;2023-07-24T00:49:15;95428.13;;;18.54;69.21
79544;BME280;68994;47.176;7.534;2023-07-24T00:51:42;95428.75;;;18.51;69.25
79544;BME280;68994;47.176;7.534;2023-07-24T00:54:11;95422.28;;;18.44;70.03
79544;BME280;68994;47.176;7.534;2023-07-24T00:56:41;95418.44;;;18.45;70.24
79544;BME280;68994;47.176;7.534;2023-07-24T00:59:08;95416.56;;;18.45;70.10
79544;BME280;68994;47.176;7.534;2023-07-24T01:01:36;95410.81;;;18.56;68.17
79544;BME280;68994;47.176;7.534;2023-07-24T01:04:05;95407.97;;;18.52;69.76
79544;BME280;68994;47.176;7.534;2023-07-24T01:06:32;95404.78;;;18.50;69.22
79544;BME280;68994;47.176;7.534;2023-07-24T01:08:59;95397.50;;;18.42;72.33
79544;BME280;68994;47.176;7.534;2023-07-24T01:11:28;95407.53;;;18.32;70.18
79544;BME280;68994;47.176;7.534;2023-07-24T01:14:02;95394.19;;;18.27;70.96
79544;BME280;68994;47.176;7.534;2023-07-24T01:16:36;95410.44;;;18.19;71.36
79544;BME280;68994;47.176;7.534;2023-07-24T01:19:03;95409.44;;;18.23;69.64
79544;BME280;68994;47.176;7.534;2023-07-24T01:21:38;95398.34;;;18.16;71.13
79544;BME280;68994;47.176;7.534;2023-07-24T01:24:21;95406.78;;;18.06;72.00
79544;BME280;68994;47.176;7.534;2023-07-24T01:26:51;95397.72;;;17.93;71.31
79544;BME280;68994;47.176;7.534;2023-07-24T01:29:18;95389.00;;;17.87;72.40
79544;BME280;68994;47.176;7.534;2023-07-24T01:31:44;95388.03;;;17.83;72.73
79544;BME280;68994;47.176;7.534;2023-07-24T01:34:11;95378.34;;;17.82;72.52
79544;BME280;68994;47.176;7.534;2023-07-24T01:36:38;95367.88;;;17.98;69.32
79544;BME280;68994;47.176;7.534;2023-07-24T01:39:05;95372.78;;;18.05;70.18
79544;BME280;68994;47.176;7.534;2023-07-24T01:41:32;95374.09;;;17.98;71.23
79544;BME280;68994;47.176;7.534;2023-07-24T01:44:00;95359.16;;;17.84;71.75
79544;BME280;68994;47.176;7.534;2023-07-24T01:46:27;95360.44;;;17.69;71.46
79544;BME280;68994;47.176;7.534;2023-07-24T01:48:53;95357.41;;;17.70;71.70
79544;BME280;68994;47.176;7.534;2023-07-24T01:51:20;95342.16;;;17.66;72.51
79544;BME280;68994;47.176;7.534;2023-07-24T01:53:47;95337.72;;;17.61;73.26
79544;BME280;68994;47.176;7.534;2023-07-24T01:56:13;95347.44;;;17.53;72.91
79544;BME280;68994;47.176;7.534;2023-07-24T01:58:40;95338.38;;;17.49;73.62
79544;BME280;68994;47.176;7.534;2023-07-24T02:01:08;95335.66;;;17.49;72.47
79544;BME280;68994;47.176;7.534;2023-07-24T02:03:34;95328.22;;;17.46;72.50
79544;BME280;68994;47.176;7.534;2023-07-24T02:06:01;95323.94;;;17.45;72.20
79544;BME280;68994;47.176;7.534;2023-07-24T02:08:28;95323.94;;;17.45;72.59
79544;BME280;68994;47.176;7.534;2023-07-24T02:10:54;95322.50;;;17.48;72.82
79544;BME280;68994;47.176;7.534;2023-07-24T02:13:21;95323.94;;;17.45;72.25
79544;BME280;68994;47.176;7.534;2023-07-24T02:15:47;95318.41;;;17.41;72.27
79544;BME280;68994;47.176;7.534;2023-07-24T02:18:15;95322.19;;;17.40;73.15
79544;BME280;68994;47.176;7.534;2023-07-24T02:20:48;95324.09;;;17.31;73.37
79544;BME280;68994;47.176;7.534;2023-07-24T02:23:15;95334.56;;;17.24;72.94
79544;BME280;68994;47.176;7.534;2023-07-24T02:25:41;95342.94;;;17.22;73.36
79544;BME280;68994;47.176;7.534;2023-07-24T02:28:09;95334.72;;;17.19;73.44
79544;BME280;68994;47.176;7.534;2023-07-24T02:30:38;95326.47;;;17.15;73.48
79544;BME280;68994;47.176;7.534;2023-07-24T02:33:07;95324.38;;;17.12;74.18
79544;BME280;68994;47.176;7.534;2023-07-24T02:35:39;95319.94;;;17.08;74.38
79544;BME280;68994;47.176;7.534;2023-07-24T02:38:06;95330.91;;;17.11;73.32
79544;BME280;68994;47.176;7.534;2023-07-24T02:40:33;95322.34;;;17.27;72.30
79544;BME280;68994;47.176;7.534;2023-07-24T02:43:00;95328.22;;;17.29;73.07
79544;BME280;68994;47.176;7.534;2023-07-24T02:45:26;95331.22;;;17.27;73.48
79544;BME280;68994;47.176;7.534;2023-07-24T02:47:53;95336.47;;;17.32;74.76
79544;BME280;68994;47.176;7.534;2023-07-24T02:50:19;95336.00;;;17.30;74.99
79544;BME280;68994;47.176;7.534;2023-07-24T02:52:48;95332.34;;;17.26;73.91
79544;BME280;68994;47.176;7.534;2023-07-24T02:55:14;95339.63;;;17.25;74.93
79544;BME280;68994;47.176;7.534;2023-07-24T02:57:41;95346.63;;;17.27;74.70
79544;BME280;68994;47.176;7.534;2023-07-24T03:00:09;95339.31;;;17.27;75.34
79544;BME280;68994;47.176;7.534;2023-07-24T03:02:35;95326.31;;;17.29;75.48
79544;BME280;68994;47.176;7.534;2023-07-24T03:05:02;95326.47;;;17.33;75.16
79544;BME280;68994;47.176;7.534;2023-07-24T03:07:29;95326.47;;;17.33;74.03
79544;BME280;68994;47.176;7.534;2023-07-24T03:09:57;95325.19;;;17.39;74.45
79544;BME280;68994;47.176;7.534;2023-07-24T03:12:24;95314.56;;;17.42;74.21
79544;BME280;68994;47.176;7.534;2023-07-24T03:14:50;95303.78;;;17.51;73.95
79544;BME280;68994;47.176;7.534;2023-07-24T03:17:17;95298.25;;;17.56;72.60
79544;BME280;68994;47.176;7.534;2023-07-24T03:19:44;95288.09;;;17.53;74.32
79544;BME280;68994;47.176;7.534;2023-07-24T03:22:10;95299.66;;;17.54;73.90
79544;BME280;68994;47.176;7.534;2023-07-24T03:24:37;95306.16;;;17.53;74.92
79544;BME280;68994;47.176;7.534;2023-07-24T03:27:05;95315.22;;;17.57;72.90
79544;BME280;68994;47.176;7.534;2023-07-24T03:29:32;95321.38;;;17.66;72.31
79544;BME280;68994;47.176;7.534;2023-07-24T03:31:58;95319.16;;;17.77;71.53
79544;BME280;68994;47.176;7.534;2023-07-24T03:34:25;95309.63;;;17.71;73.75
79544;BME280;68994;47.176;7.534;2023-07-24T03:36:51;95335.03;;;17.78;74.18
79544;BME280;68994;47.176;7.534;2023-07-24T03:39:18;95344.06;;;17.83;70.62
79544;BME280;68994;47.176;7.534;2023-07-24T03:41:45;95363.78;;;17.92;72.04
79544;BME280;68994;47.176;7.534;2023-07-24T03:44:13;95379.78;;;18.06;70.02
79544;BME280;68994;47.176;7.534;2023-07-24T03:46:42;95401.81;;;18.16;69.93
79544;BME280;68994;47.176;7.534;2023-07-24T03:49:24;95454.56;;;18.40;69.14
79544;BME280;68994;47.176;7.534;2023-07-24T03:51:51;95495.84;;;18.49;69.02
79544;BME280;68994;47.176;7.534;2023-07-24T03:54:17;95561.63;;;18.62;71.31
79544;BME280;68994;47.176;7.534;2023-07-24T03:56:44;95660.00;;;18.44;77.27
79544;BME280;68994;47.176;7.534;2023-07-24T03:59:10;95668.59;;;17.57;82.92
79544;BME280;68994;47.176;7.534;2023-07-24T04:01:37;95656.72;;;17.27;86.29
79544;BME280;68994;47.176;7.534;2023-07-24T04:04:04;95664.75;;;17.18;85.68
79544;BME280;68994;47.176;7.534;2023-07-24T04:06:32;95667.19;;;17.05;88.18
79544;BME280;68994;47.176;7.534;2023-07-24T04:08:59;95663.88;;;17.09;85.91
79544;BME280;68994;47.176;7.534;2023-07-24T04:11:25;95690.28;;;17.20;87.85
79544;BME280;68994;47.176;7.534;2023-07-24T04:13:52;95667.06;;;17.11;88.45
79544;BME280;68994;47.176;7.534;2023-07-24T04:16:18;95653.41;;;17.07;88.65
79544;BME280;68994;47.176;7.534;2023-07-24T04:18:45;95645.81;;;17.09;87.81
79544;BME280;68994;47.176;7.534;2023-07-24T04:21:12;95674.00;;;17.03;88.56
79544;BME280;68994;47.176;7.534;2023-07-24T04:23:40;95658.44;;;17.00;89.47
79544;BME280;68994;47.176;7.534;2023-07-24T04:26:06;95649.38;;;16.96;90.30
79544;BME280;68994;47.176;7.534;2023-07-24T04:28:33;95654.50;;;16.83;91.18
79544;BME280;68994;47.176;7.534;2023-07-24T04:30:59;95664.38;;;16.88;91.29
79544;BME280;68994;47.176;7.534;2023-07-24T04:33:27;95626.75;;;16.83;91.77
79544;BME280;68994;47.176;7.534;2023-07-24T04:35:54;95623.56;;;16.81;91.87
79544;BME280;68994;47.176;7.534;2023-07-24T04:38:20;95608.75;;;16.92;91.21
79544;BME280;68994;47.176;7.534;2023-07-24T04:40:48;95586.16;;;16.79;92.31
79544;BME280;68994;47.176;7.534;2023-07-24T04:43:15;95579.66;;;16.80;93.69
79544;BME280;68994;47.176;7.534;2023-07-24T04:45:41;95586.28;;;16.74;94.40
79544;BME280;68994;47.176;7.534;2023-07-24T04:48:08;95587.06;;;16.75;96.09
79544;BME280;68994;47.176;7.534;2023-07-24T04:50:35;95573.78;;;16.78;96.15
79544;BME280;68994;47.176;7.534;2023-07-24T04:53:01;95554.59;;;16.80;96.71
79544;BME280;68994;47.176;7.534;2023-07-24T04:55:28;95548.91;;;16.81;97.02
79544;BME280;68994;47.176;7.534;2023-07-24T04:57:56;95544.50;;;16.85;97.22
79544;BME280;68994;47.176;7.534;2023-07-24T05:00:22;95534.84;;;16.84;97.13
79544;BME280;68994;47.176;7.534;2023-07-24T05:02:49;95521.56;;;16.88;97.55
79544;BME280;68994;47.176;7.534;2023-07-24T05:05:16;95522.06;;;16.99;95.99
79544;BME280;68994;47.176;7.534;2023-07-24T05:07:43;95516.50;;;16.95;95.95
79544;BME280;68994;47.176;7.534;2023-07-24T05:10:09;95523.06;;;17.03;96.16
79544;BME280;68994;47.176;7.534;2023-07-24T05:12:36;95521.81;;;17.09;94.78
79544;BME280;68994;47.176;7.534;2023-07-24T05:15:05;95512.47;;;17.15;93.44
79544;BME280;68994;47.176;7.534;2023-07-24T05:17:32;95495.22;;;17.25;93.46
79544;BME280;68994;47.176;7.534;2023-07-24T05:19:59;95495.53;;;17.23;93.89
79544;BME280;68994;47.176;7.534;2023-07-24T05:22:25;95488.84;;;17.12;95.42
79544;BME280;68994;47.176;7.534;2023-07-24T05:24:52;95481.03;;;17.02;95.92
79544;BME280;68994;47.176;7.534;2023-07-24T05:27:18;95483.28;;;17.09;96.49
79544;BME280;68994;47.176;7.534;2023-07-24T05:29:45;95485.66;;;17.10;96.55
79544;BME280;68994;47.176;7.534;2023-07-24T05:32:13;95481.22;;;17.14;96.27
79544;BME280;68994;47.176;7.534;2023-07-24T05:34:39;95463.50;;;17.22;95.73
79544;BME280;68994;47.176;7.534;2023-07-24T05:37:06;95447.34;;;17.31;95.73
79544;BME280;68994;47.176;7.534;2023-07-24T05:39:33;95425.66;;;17.45;95.61
79544;BME280;68994;47.176;7.534;2023-07-24T05:41:59;95415.34;;;17.55;95.86
79544;BME280;68994;47.176;7.534;2023-07-24T05:44:26;95432.47;;;17.59;95.51
79544;BME280;68994;47.176;7.534;2023-07-24T05:46:53;95437.69;;;17.56;93.97
79544;BME280;68994;47.176;7.534;2023-07-24T05:49:21;95454.34;;;17.49;94.79
79544;BME280;68994;47.176;7.534;2023-07-24T05:51:47;95472.13;;;17.50;94.49
79544;BME280;68994;47.176;7.534;2023-07-24T05:54:14;95453.72;;;17.52;94.89
79544;BME280;68994;47.176;7.534;2023-07-24T05:56:40;95436.13;;;17.55;92.94
79544;BME280;68994;47.176;7.534;2023-07-24T05:59:07;95420.41;;;17.66;93.27
79544;BME280;68994;47.176;7.534;2023-07-24T06:01:34;95401.53;;;17.83;93.80
79544;BME280;68994;47.176;7.534;2023-07-24T06:04:00;95399.31;;;17.94;93.04
79544;BME280;68994;47.176;7.534;2023-07-24T06:06:28;95414.41;;;18.04;92.01
79544;BME280;68994;47.176;7.534;2023-07-24T06:08:55;95435.69;;;18.14;90.32
79544;BME280;68994;47.176;7.534;2023-07-24T06:11:21;95449.00;;;18.19;89.94
79544;BME280;68994;47.176;7.534;2023-07-24T06:13:49;95440.09;;;18.27;89.75
79544;BME280;68994;47.176;7.534;2023-07-24T06:16:15;95437.06;;;18.38;88.95
79544;BME280;68994;47.176;7.534;2023-07-24T06:18:42;95440.53;;;18.56;87.28
79544;BME280;68994;47.176;7.534;2023-07-24T06:21:09;95426.69;;;18.57;87.89
79544;BME280;68994;47.176;7.534;2023-07-24T06:23:36;95422.50;;;18.68;84.11
79544;BME280;68994;47.176;7.534;2023-07-24T06:26:03;95430.75;;;18.81;82.16
79544;BME280;68994;47.176;7.534;2023-07-24T06:28:30;95442.19;;;18.78;83.20
79544;BME280;68994;47.176;7.534;2023-07-24T06:30:57;95454.94;;;18.86;82.99
79544;BME280;68994;47.176;7.534;2023-07-24T06:33:24;95449.22;;;18.79;83.27
79544;BME280;68994;47.176;7.534;2023-07-24T06:35:50;95435.09;;;18.64;85.05
79544;BME280;68994;47.176;7.534;2023-07-24T06:38:17;95461.13;;;18.78;84.16
79544;BME280;68994;47.176;7.534;2023-07-24T06:40:48;95463.50;;;18.79;84.72
79544;BME280;68994;47.176;7.534;2023-07-24T06:43:14;95455.72;;;18.86;83.96
79544;BME280;68994;47.176;7.534;2023-07-24T06:45:41;95453.94;;;18.82;85.00
79544;BME280;68994;47.176;7.534;2023-07-24T06:48:07;95463.69;;;18.83;83.32
79544;BME280;68994;47.176;7.534;2023-07-24T06:50:34;95457.78;;;18.81;82.62
79544;BME280;68994;47.176;7.534;2023-07-24T06:53:01;95468.91;;;18.79;84.14
79544;BME280;68994;47.176;7.534;2023-07-24T06:55:27;95463.69;;;18.83;83.83
79544;BME280;68994;47.176;7.534;2023-07-24T06:57:55;95466.84;;;18.85;85.55
79544;BME280;68994;47.176;7.534;2023-07-24T07:00:22;95462.56;;;18.84;87.20
79544;BME280;68994;47.176;7.534;2023-07-24T07:02:48;95455.56;;;18.83;86.35
79544;BME280;68994;47.176;7.534;2023-07-24T07:05:15;95458.72;;;18.85;86.69
79544;BME280;68994;47.176;7.534;2023-07-24T07:07:42;95465.75;;;18.86;86.08
79544;BME280;68994;47.176;7.534;2023-07-24T07:10:08;95454.94;;;18.86;86.57
79544;BME280;68994;47.176;7.534;2023-07-24T07:12:35;95451.44;;;18.85;85.99
79544;BME280;68994;47.176;7.534;2023-07-24T07:15:04;95466.19;;;18.88;85.17
79544;BME280;68994;47.176;7.534;2023-07-24T07:17:31;95463.97;;;18.90;84.88
79544;BME280;68994;47.176;7.534;2023-07-24T07:19:57;95460.34;;;18.86;84.09
79544;BME280;68994;47.176;7.534;2023-07-24T07:22:24;95451.09;;;18.87;84.25
79544;BME280;68994;47.176;7.534;2023-07-24T07:24:50;95430.75;;;18.81;84.01
79544;BME280;68994;47.176;7.534;2023-07-24T07:27:17;95420.09;;;18.84;84.59
79544;BME280;68994;47.176;7.534;2023-07-24T07:29:44;95397.50;;;18.89;85.78
79544;BME280;68994;47.176;7.534;2023-07-24T07:32:12;95381.56;;;18.96;84.61
79544;BME280;68994;47.176;7.534;2023-07-24T07:34:38;95379.75;;;19.09;84.87
79544;BME280;68994;47.176;7.534;2023-07-24T07:37:05;95360.44;;;19.19;85.46
79544;BME280;68994;47.176;7.534;2023-07-24T07:39:32;95342.97;;;19.38;86.11
79544;BME280;68994;47.176;7.534;2023-07-24T07:41:58;95335.97;;;19.58;86.75
79544;BME280;68994;47.176;7.534;2023-07-24T07:44:25;95349.38;;;19.75;84.41
79544;BME280;68994;47.176;7.534;2023-07-24T07:46:52;95360.94;;;19.85;82.68
79544;BME280;68994;47.176;7.534;2023-07-24T07:49:20;95365.75;;;19.79;82.23
79544;BME280;68994;47.176;7.534;2023-07-24T07:51:46;95370.41;;;19.91;81.42
79544;BME280;68994;47.176;7.534;2023-07-24T07:54:13;95362.81;;;20.17;83.18
79544;BME280;68994;47.176;7.534;2023-07-24T07:56:40;95366.94;;;20.36;80.86
79544;BME280;68994;47.176;7.534;2023-07-24T07:59:07;95365.50;;;20.51;77.72
79544;BME280;68994;47.176;7.534;2023-07-24T08:01:36;95361.56;;;20.48;76.83
79544;BME280;68994;47.176;7.534;2023-07-24T08:04:04;95353.31;;;20.57;77.73
79544;BME280;68994;47.176;7.534;2023-07-24T08:06:32;95362.22;;;20.57;76.71
79544;BME280;68994;47.176;7.534;2023-07-24T08:08:59;95364.25;;;20.61;77.88
79544;BME280;68994;47.176;7.534;2023-07-24T08:11:25;95360.44;;;20.62;75.86
79544;BME280;68994;47.176;7.534;2023-07-24T08:13:52;95347.81;;;20.66;79.11
79544;BME280;68994;47.176;7.534;2023-07-24T08:16:19;95336.41;;;20.72;78.04
79544;BME280;68994;47.176;7.534;2023-07-24T08:18:46;95335.38;;;20.89;77.06
79544;BME280;68994;47.176;7.534;2023-07-24T08:21:13;95335.16;;;21.07;77.09
79544;BME280;68994;47.176;7.534;2023-07-24T08:23:41;95320.97;;;21.26;77.09
79544;BME280;68994;47.176;7.534;2023-07-24T08:26:08;95312.47;;;21.40;75.23
79544;BME280;68994;47.176;7.534;2023-07-24T08:28:35;95297.75;;;21.53;73.88
79544;BME280;68994;47.176;7.534;2023-07-24T08:31:01;95305.78;;;21.78;71.92
79544;BME280;68994;47.176;7.534;2023-07-24T08:33:28;95314.13;;;21.85;74.00
79544;BME280;68994;47.176;7.534;2023-07-24T08:36:02;95306.44;;;21.87;71.91
79544;BME280;68994;47.176;7.534;2023-07-24T08:38:29;95288.56;;;21.86;72.16
79544;BME280;68994;47.176;7.534;2023-07-24T08:41:04;95284.56;;;22.12;72.51
79544;BME280;68994;47.176;7.534;2023-07-24T08:43:32;95292.84;;;22.31;75.11
79544;BME280;68994;47.176;7.534;2023-07-24T08:46:00;95302.31;;;22.53;75.99
79544;BME280;68994;47.176;7.534;2023-07-24T08:48:29;95296.69;;;22.62;74.23
79544;BME280;68994;47.176;7.534;2023-07-24T08:50:59;95301.78;;;22.79;74.72
79544;BME280;68994;47.176;7.534;2023-07-24T08:53:25;95313.44;;;22.96;74.04
79544;BME280;68994;47.176;7.534;2023-07-24T08:55:53;95325.31;;;23.23;75.51
79544;BME280;68994;47.176;7.534;2023-07-24T08:58:22;95334.59;;;23.58;73.95
79544;BME280;68994;47.176;7.534;2023-07-24T09:00:48;95339.75;;;23.43;69.43
79544;BME280;68994;47.176;7.534;2023-07-24T09:03:17;95345.19;;;23.43;67.84
79544;BME280;68994;47.176;7.534;2023-07-24T09:05:43;95345.19;;;23.43;65.13
79544;BME280;68994;47.176;7.534;2023-07-24T09:08:10;95354.59;;;23.10;66.01
79544;BME280;68994;47.176;7.534;2023-07-24T09:10:36;95351.00;;;22.74;69.31
79544;BME280;68994;47.176;7.534;2023-07-24T09:13:03;95340.56;;;22.45;71.70
79544;BME280;68994;47.176;7.534;2023-07-24T09:15:39;95324.19;;;22.13;72.09
79544;BME280;68994;47.176;7.534;2023-07-24T09:18:06;95315.47;;;21.91;72.46
79544;BME280;68994;47.176;7.534;2023-07-24T09:20:38;95303.78;;;21.75;73.65
79544;BME280;68994;47.176;7.534;2023-07-24T09:23:05;95295.38;;;21.80;73.90
79544;BME280;68994;47.176;7.534;2023-07-24T09:25:32;95295.25;;;22.04;72.33
79544;BME280;68994;47.176;7.534;2023-07-24T09:27:59;95286.28;;;22.48;72.97
79544;BME280;68994;47.176;7.534;2023-07-24T09:30:26;95281.84;;;22.75;71.81
79544;BME280;68994;47.176;7.534;2023-07-24T09:32:54;95260.94;;;22.95;69.70
79544;BME280;68994;47.176;7.534;2023-07-24T09:35:21;95267.63;;;23.53;72.22
79544;BME280;68994;47.176;7.534;2023-07-24T09:38:01;95308.38;;;24.31;67.29
79544;BME280;68994;47.176;7.534;2023-07-24T09:40:28;95327.22;;;24.17;61.05
79544;BME280;68994;47.176;7.534;2023-07-24T09:42:55;95313.41;;;23.67;62.50
79544;BME280;68994;47.176;7.534;2023-07-24T09:45:21;95297.97;;;23.16;64.17
79544;BME280;68994;47.176;7.534;2023-07-24T09:47:48;95277.66;;;22.78;64.61
79544;BME280;68994;47.176;7.534;2023-07-24T09:50:16;95280.06;;;22.48;66.26
79544;BME280;68994;47.176;7.534;2023-07-24T09:52:44;95276.78;;;22.26;67.60
79544;BME280;68994;47.176;7.534;2023-07-24T09:55:16;95278.47;;;22.31;68.69
79544;BME280;68994;47.176;7.534;2023-07-24T09:57:46;95302.22;;;22.34;69.02
79544;BME280;68994;47.176;7.534;2023-07-24T10:00:15;95313.97;;;22.54;67.58
79544;BME280;68994;47.176;7.534;2023-07-24T10:02:41;95326.78;;;22.69;67.11
79544;BME280;68994;47.176;7.534;2023-07-24T10:05:08;95349.84;;;23.07;66.34
79544;BME280;68994;47.176;7.534;2023-07-24T10:07:36;95371.41;;;23.32;63.00
79544;BME280;68994;47.176;7.534;2023-07-24T10:10:04;95356.44;;;23.42;64.07
79544;BME280;68994;47.176;7.534;2023-07-24T10:12:31;95363.56;;;23.66;63.58
79544;BME280;68994;47.176;7.534;2023-07-24T10:14:58;95390.56;;;23.55;63.70
79544;BME280;68994;47.176;7.534;2023-07-24T10:17:35;95397.84;;;23.31;65.85
79544;BME280;68994;47.176;7.534;2023-07-24T10:20:03;95411.88;;;23.02;66.39
79544;BME280;68994;47.176;7.534;2023-07-24T10:22:30;95406.44;;;22.86;69.80
79544;BME280;68994;47.176;7.534;2023-07-24T10:24:59;95401.78;;;22.70;70.77
79544;BME280;68994;47.176;7.534;2023-07-24T10:27:25;95397.31;;;22.78;72.05
79544;BME280;68994;47.176;7.534;2023-07-24T10:29:59;95370.34;;;23.21;69.93
79544;BME280;68994;47.176;7.534;2023-07-24T10:32:26;95378.44;;;23.52;68.51
79544;BME280;68994;47.176;7.534;2023-07-24T10:34:59;95372.63;;;23.89;67.64
79544;BME280;68994;47.176;7.534;2023-07-24T10:37:32;95374.41;;;24.01;63.50
79544;BME280;68994;47.176;7.534;2023-07-24T10:40:01;95394.97;;;23.79;63.65
79544;BME280;68994;47.176;7.534;2023-07-24T10:42:29;95392.53;;;23.55;64.45
79544;BME280;68994;47.176;7.534;2023-07-24T10:45:06;95387.88;;;23.39;63.65
79544;BME280;68994;47.176;7.534;2023-07-24T10:47:33;95367.06;;;23.11;64.67
79544;BME280;68994;47.176;7.534;2023-07-24T10:50:00;95355.28;;;23.07;65.21
79544;BME280;68994;47.176;7.534;2023-07-24T10:52:28;95358.91;;;23.31;65.29
79544;BME280;68994;47.176;7.534;2023-07-24T10:54:55;95348.38;;;23.65;63.75
79544;BME280;68994;47.176;7.534;2023-07-24T10:57:26;95348.81;;;23.67;62.65
79544;BME280;68994;47.176;7.534;2023-07-24T10:59:53;95360.06;;;23.65;61.82
79544;BME280;68994;47.176;7.534;2023-07-24T11:02:19;95357.00;;;23.51;62.63
79544;BME280;68994;47.176;7.534;2023-07-24T11:04:46;95357.66;;;23.44;64.41
79544;BME280;68994;47.176;7.534;2023-07-24T11:07:13;95333.00;;;23.37;63.65
79544;BME280;68994;47.176;7.534;2023-07-24T11:09:40;95330.44;;;23.44;63.35
79544;BME280;68994;47.176;7.534;2023-07-24T11:12:12;95335.75;;;23.57;61.38
79544;BME280;68994;47.176;7.534;2023-07-24T11:14:48;95344.50;;;23.66;59.25
79544;BME280;68994;47.176;7.534;2023-07-24T11:17:14;95352.91;;;23.77;61.00
79544;BME280;68994;47.176;7.534;2023-07-24T11:19:41;95337.78;;;23.99;58.92
79544;BME280;68994;47.176;7.534;2023-07-24T11:22:08;95328.97;;;24.52;58.37
79544;BME280;68994;47.176;7.534;2023-07-24T11:24:42;95326.69;;;25.27;61.00
79544;BME280;68994;47.176;7.534;2023-07-24T11:27:12;95313.97;;;26.02;58.23
79544;BME280;68994;47.176;7.534;2023-07-24T11:29:39;95301.97;;;26.14;56.09
79544;BME280;68994;47.176;7.534;2023-07-24T11:32:09;95308.25;;;26.15;55.86
79544;BME280;68994;47.176;7.534;2023-07-24T11:34:36;95303.63;;;25.88;53.66
79544;BME280;68994;47.176;7.534;2023-07-24T11:37:03;95299.47;;;25.64;55.92
79544;BME280;68994;47.176;7.534;2023-07-24T11:39:30;95300.50;;;25.52;52.32
79544;BME280;68994;47.176;7.534;2023-07-24T11:41:59;95298.34;;;25.39;53.62
79544;BME280;68994;47.176;7.534;2023-07-24T11:44:27;95312.25;;;25.26;52.21
79544;BME280;68994;47.176;7.534;2023-07-24T11:47:00;95311.75;;;25.81;54.54
79544;BME280;68994;47.176;7.534;2023-07-24T11:49:29;95300.59;;;26.31;59.28
79544;BME280;68994;47.176;7.534;2023-07-24T11:52:00;95292.53;;;26.94;52.49
79544;BME280;68994;47.176;7.534;2023-07-24T11:54:27;95292.41;;;26.79;53.32
79544;BME280;68994;47.176;7.534;2023-07-24T11:56:54;95292.53;;;26.97;57.74
79544;BME280;68994;47.176;7.534;2023-07-24T11:59:20;95281.72;;;27.19;56.97
79544;BME280;68994;47.176;7.534;2023-07-24T12:01:47;95279.50;;;27.39;58.14
79544;BME280;68994;47.176;7.534;2023-07-24T12:04:14;95279.31;;;27.07;55.53
79544;BME280;68994;47.176;7.534;2023-07-24T12:06:43;95267.31;;;26.67;57.95
79544;BME280;68994;47.176;7.534;2023-07-24T12:09:10;95264.56;;;26.22;57.72
79544;BME280;68994;47.176;7.534;2023-07-24T12:11:40;95263.75;;;26.18;58.09
79544;BME280;68994;47.176;7.534;2023-07-24T12:14:07;95261.31;;;26.09;59.20
79544;BME280;68994;47.176;7.534;2023-07-24T12:16:34;95256.66;;;26.09;58.52
79544;BME280;68994;47.176;7.534;2023-07-24T12:19:01;95234.34;;;26.07;60.39
79544;BME280;68994;47.176;7.534;2023-07-24T12:21:27;95237.88;;;26.08;58.95
79544;BME280;68994;47.176;7.534;2023-07-24T12:23:55;95238.59;;;26.01;60.25
79544;BME280;68994;47.176;7.534;2023-07-24T12:26:22;95239.00;;;26.48;59.22
79544;BME280;68994;47.176;7.534;2023-07-24T12:28:50;95227.53;;;26.83;56.81
79544;BME280;68994;47.176;7.534;2023-07-24T12:31:17;95213.53;;;26.96;55.86
79544;BME280;68994;47.176;7.534;2023-07-24T12:33:43;95212.75;;;26.99;54.50
79544;BME280;68994;47.176;7.534;2023-07-24T12:36:10;95207.63;;;26.87;56.73
79544;BME280;68994;47.176;7.534;2023-07-24T12:38:36;95212.41;;;26.48;57.82
79544;BME280;68994;47.176;7.534;2023-07-24T12:41:04;95204.41;;;26.22;57.91
79544;BME280;68994;47.176;7.534;2023-07-24T12:43:31;95196.00;;;26.00;60.74
79544;BME280;68994;47.176;7.534;2023-07-24T12:45:58;95200.19;;;25.90;57.96
79544;BME280;68994;47.176;7.534;2023-07-24T12:48:24;95221.94;;;25.76;60.63
79544;BME280;68994;47.176;7.534;2023-07-24T12:50:51;95196.69;;;25.52;61.01
79544;BME280;68994;47.176;7.534;2023-07-24T12:53:17;95183.91;;;25.26;60.42
79544;BME280;68994;47.176;7.534;2023-07-24T12:55:44;95183.28;;;25.10;61.54
79544;BME280;68994;47.176;7.534;2023-07-24T12:58:12;95200.97;;;24.89;63.99
79544;BME280;68994;47.176;7.534;2023-07-24T13:00:38;95206.66;;;24.77;63.91